Time;durP1;ratioP1;P1;durP2;ratioP2;P2;SDS_P1;SDS_P2;PMS_P1;PMS_P2;Temp;Humidity;BMP_temperature;BMP_pressure;BME280_temperature;BME280_humidity;BME280_pressure;Samples;Min_cycle;Max_cycle;Signal;HPM_P1;HPM_P2
2024/01/20 00:01:54;;;;;;;;;;;;;;;;;;;;;
2024/01/20 00:04:24;;;;;;;41.83;13.02;;;;;;;-1.99;100.00;102528.56;5024192;28;20028;-93
2024/01/20 00:07:26;;;;;;;;;;;;;;;;;;;;;
2024/01/20 00:10:10;;;;;;;40.83;13.40;;;;;;;-1.95;100.00;102522.97;5016481;28;20028;-92
2024/01/20 00:12:47;;;;;;;;;;;;;;;;;;;;;
2024/01/20 00:15:49;;;;;;;40.75;12.50;;;;;;;-1.95;100.00;102528.28;5034992;28;20355;-95
2024/01/20 00:18:37;;;;;;;39.83;12.95;;;;;;;-1.98;100.00;102522.28;4991581;28;20044;-93
2024/01/20 00:21:45;;;;;;;;;;;;;;;;;;;;;
2024/01/20 00:24:35;;;;;;;41.05;12.45;;;;;;;-1.91;100.00;102520.13;5001399;28;20038;-93
2024/01/20 00:27:19;;;;;;;45.13;13.03;;;;;;;-1.87;100.00;102540.28;4989514;28;20073;-93
2024/01/20 00:30:04;;;;;;;47.78;14.40;;;;;;;-1.90;100.00;102528.00;4986614;28;20784;-92
2024/01/20 00:32:58;;;;;;;45.28;13.73;;;;;;;-1.89;100.00;102524.41;4996782;28;20037;-93
2024/01/20 00:35:33;;;;;;;43.10;12.77;;;;;;;-1.89;100.00;102534.19;5008866;28;20025;-92
2024/01/20 00:38:48;;;;;;;;;;;;;;;;;;;;;
2024/01/20 00:41:27;;;;;;;38.33;13.27;;;;;;;-1.90;100.00;102528.00;5027585;28;20029;-92
2024/01/20 00:43:58;;;;;;;38.47;12.65;;;;;;;-1.92;100.00;102523.72;4990457;28;20288;-92
2024/01/20 00:46:39;;;;;;;45.45;13.77;;;;;;;-1.87;100.00;102529.63;5015828;28;20017;-93
2024/01/20 00:49:19;;;;;;;47.75;13.27;;;;;;;-1.91;100.00;102522.78;5009210;28;20548;-92
2024/01/20 00:51:50;;;;;;;38.63;12.13;;;;;;;-1.90;100.00;102520.03;5023005;28;20477;-93
2024/01/20 00:54:47;;;;;;;40.67;13.83;;;;;;;-1.89;100.00;102527.06;5005440;28;20025;-91
2024/01/20 00:57:33;;;;;;;42.55;12.88;;;;;;;-1.89;100.00;102532.38;5011974;28;20284;-92
2024/01/20 01:00:53;;;;;;;39.70;13.27;;;;;;;-1.89;100.00;102523.53;4974312;28;20053;-92
2024/01/20 01:04:24;;;;;;;;;;;;;;;;;;;;;
2024/01/20 01:07:27;;;;;;;;;;;;;;;;;;;;;
2024/01/20 01:09:56;;;;;;;38.20;12.70;;;;;;;-1.90;100.00;102521.84;5002438;28;20041;-91
2024/01/20 01:12:25;;;;;;;35.30;11.70;;;;;;;-1.88;100.00;102514.59;5000914;28;20343;-91
2024/01/20 01:14:51;;;;;;;45.70;13.20;;;;;;;-1.94;100.00;102515.84;5000371;28;20025;-91
2024/01/20 01:17:54;;;;;;;44.90;12.88;;;;;;;-1.94;100.00;102532.63;5016875;28;20080;-91
2024/01/20 01:20:35;;;;;;;38.37;13.30;;;;;;;-1.95;100.00;102524.75;5000333;28;20069;-91
2024/01/20 01:23:33;;;;;;;;;;;;;;;;;;;;;
2024/01/20 01:26:02;;;;;;;38.13;12.57;;;;;;;-1.96;100.00;102539.03;4989402;28;20478;-91
2024/01/20 01:28:30;;;;;;;42.08;12.50;;;;;;;-2.04;100.00;102523.50;4984020;28;20030;-90
2024/01/20 01:31:00;;;;;;;41.38;13.10;;;;;;;-2.03;100.00;102527.03;4999345;28;20022;-90
2024/01/20 01:33:31;;;;;;;43.67;12.97;;;;;;;-2.08;100.00;102529.97;4983936;28;20121;-91
2024/01/20 01:35:56;;;;;;;46.70;13.70;;;;;;;-2.06;100.00;102537.84;5016436;28;20291;-90
2024/01/20 01:38:24;;;;;;;40.60;11.93;;;;;;;-2.07;100.00;102522.84;4999670;28;20030;-90
2024/01/20 01:40:52;;;;;;;37.27;12.47;;;;;;;-2.12;100.00;102534.59;4999696;28;20026;-90
2024/01/20 01:43:28;;;;;;;39.97;11.70;;;;;;;-2.06;100.00;102559.13;4998812;28;20276;-91
2024/01/20 01:46:06;;;;;;;46.75;13.50;;;;;;;-2.10;100.00;102534.50;4985010;28;20058;-91
2024/01/20 01:48:35;;;;;;;37.80;13.40;;;;;;;-2.07;100.00;102541.47;4999580;28;20497;-91
2024/01/20 01:51:14;;;;;;;;;;;;;;;;;;;;;
2024/01/20 01:53:55;;;;;;;35.00;12.33;;;;;;;-2.06;100.00;102548.50;5017295;28;20036;-91
2024/01/20 01:56:27;;;;;;;36.42;12.13;;;;;;;-2.06;100.00;102546.69;4982684;28;20285;-90
2024/01/20 01:58:56;;;;;;;40.45;13.02;;;;;;;-2.04;100.00;102554.56;4999080;28;20026;-89
2024/01/20 02:01:39;;;;;;;38.72;13.60;;;;;;;-2.01;100.00;102557.06;4983471;28;20037;-90
2024/01/20 02:04:18;;;;;;;35.45;11.90;;;;;;;-2.02;100.00;102550.88;4998970;28;20049;-91
2024/01/20 02:06:44;;;;;;;46.87;13.53;;;;;;;-2.01;100.00;102565.03;5000423;28;20124;-90
2024/01/20 02:09:16;;;;;;;35.30;13.50;;;;;;;-2.00;100.00;102564.94;5015632;28;20342;-90
2024/01/20 02:11:41;;;;;;;41.03;13.48;;;;;;;-2.00;100.00;102562.28;4998927;28;20041;-90
2024/01/20 02:14:23;;;;;;;39.67;14.02;;;;;;;-2.00;100.00;102561.44;4998483;28;20022;-90
2024/01/20 02:16:51;;;;;;;44.17;13.53;;;;;;;-2.05;100.00;102564.38;4998769;28;20095;-91
2024/01/20 02:19:19;;;;;;;38.60;13.43;;;;;;;-2.04;100.00;102562.56;4998567;28;20387;-90
2024/01/20 02:21:45;;;;;;;36.95;12.60;;;;;;;-2.02;100.00;102571.28;4982640;28;20054;-90
2024/01/20 02:24:15;;;;;;;41.43;13.57;;;;;;;-2.00;100.00;102570.25;4998739;28;20026;-90
2024/01/20 02:26:45;;;;;;;41.53;13.10;;;;;;;-2.01;100.00;102563.25;4998855;28;20030;-90
2024/01/20 02:29:12;;;;;;;43.75;14.05;;;;;;;-2.03;100.00;102574.91;4982139;28;20064;-90
2024/01/20 02:31:41;;;;;;;39.78;12.63;;;;;;;-2.02;100.00;102582.81;4998190;28;20037;-90
2024/01/20 02:34:36;;;;;;;38.70;12.70;;;;;;;-1.97;100.00;102579.88;5014555;28;20029;-91
2024/01/20 02:37:08;;;;;;;36.37;11.93;;;;;;;-2.01;100.00;102578.31;4983240;28;20545;-90
2024/01/20 02:39:44;;;;;;;;;;;;;;;;;;;;;
2024/01/20 02:42:13;;;;;;;41.88;13.48;;;;;;;-1.97;100.00;102582.53;5015573;28;20409;-90
2024/01/20 02:44:41;;;;;;;38.45;12.85;;;;;;;-1.96;100.00;102584.25;4997132;28;20116;-90
2024/01/20 02:47:16;;;;;;;38.50;12.73;;;;;;;-1.98;100.00;102570.16;4997747;28;20117;-90
2024/01/20 02:49:42;;;;;;;40.07;13.17;;;;;;;-1.91;100.00;102573.34;4998165;28;20040;-91
2024/01/20 02:52:07;;;;;;;38.80;12.50;;;;;;;-1.91;100.00;102582.16;4981859;28;20037;-91
2024/01/20 02:54:39;;;;;;;33.33;12.10;;;;;;;-1.96;100.00;102573.63;4998489;28;20121;-90
2024/01/20 02:57:14;;;;;;;36.85;12.65;;;;;;;-1.97;100.00;102567.41;5014683;28;20549;-91
2024/01/20 02:59:47;;;;;;;36.67;11.77;;;;;;;-2.00;100.00;102569.41;4997997;28;20088;-91
2024/01/20 03:02:15;;;;;;;32.75;12.13;;;;;;;-1.99;100.00;102566.66;4997703;28;20026;-91
2024/01/20 03:04:43;;;;;;;40.23;12.20;;;;;;;-1.96;100.00;102574.44;4997340;28;20038;-91
2024/01/20 03:07:14;;;;;;;44.20;12.90;;;;;;;-1.99;100.00;102584.44;4998275;28;20478;-91
2024/01/20 03:09:46;;;;;;;33.35;11.07;;;;;;;-1.97;100.00;102591.34;5014587;28;20029;-91
2024/01/20 03:12:14;;;;;;;41.78;13.20;;;;;;;-1.92;100.00;102593.75;4997379;28;20034;-91
2024/01/20 03:14:43;;;;;;;39.20;12.73;;;;;;;-1.93;100.00;102584.06;4997724;28;20172;-91
2024/01/20 03:17:09;;;;;;;33.20;12.17;;;;;;;-1.91;100.00;102602.59;5014401;28;20053;-90
2024/01/20 03:19:37;;;;;;;34.72;12.63;;;;;;;-1.97;100.00;102594.00;4997570;28;20073;-91
2024/01/20 03:22:04;;;;;;;38.90;13.40;;;;;;;-1.92;100.00;102600.88;4996724;28;20409;-91
2024/01/20 03:24:30;;;;;;;32.00;10.77;;;;;;;-1.95;100.00;102597.47;4997329;28;20042;-90
2024/01/20 03:26:58;;;;;;;34.30;12.23;;;;;;;-1.91;100.00;102594.63;4997525;28;20504;-91
2024/01/20 03:29:24;;;;;;;36.70;12.73;;;;;;;-1.95;100.00;102600.13;4981436;28;20072;-91
2024/01/20 03:31:52;;;;;;;39.55;11.98;;;;;;;-1.91;100.00;102603.44;4996704;28;20305;-91
2024/01/20 03:34:21;;;;;;;37.28;13.48;;;;;;;-1.88;100.00;102602.41;4980937;28;20034;-90
2024/01/20 03:36:52;;;;;;;34.97;12.23;;;;;;;-1.86;100.00;102606.72;4996209;28;20041;-89
2024/01/20 03:39:20;;;;;;;28.80;11.00;;;;;;;-1.89;100.00;102598.03;5010396;28;20022;-90
2024/01/20 03:41:46;;;;;;;35.95;12.10;;;;;;;-1.89;100.00;102601.56;5016365;28;20679;-91
2024/01/20 03:44:14;;;;;;;34.97;12.15;;;;;;;-1.87;100.00;102596.16;5016324;28;20123;-90
2024/01/20 03:47:00;;;;;;;40.92;12.75;;;;;;;-1.92;100.00;102599.06;5016348;28;20044;-90
2024/01/20 03:49:25;;;;;;;31.93;12.23;;;;;;;-1.90;100.00;102606.97;5016441;28;20025;-90
2024/01/20 03:51:56;;;;;;;29.45;10.23;;;;;;;-1.90;100.00;102597.19;5016123;28;20029;-91
2024/01/20 03:54:25;;;;;;;37.03;12.93;;;;;;;-1.89;100.00;102598.03;5016285;28;20034;-90
2024/01/20 03:56:57;;;;;;;41.65;12.77;;;;;;;-1.89;100.00;102600.69;5016683;28;20303;-90
2024/01/20 03:59:25;;;;;;;39.80;13.07;;;;;;;-1.87;100.00;102596.16;5016696;28;20040;-91
2024/01/20 04:01:51;;;;;;;34.38;12.30;;;;;;;-1.87;100.00;102599.66;5002193;28;20065;-91
2024/01/20 04:04:16;;;;;;;32.57;11.63;;;;;;;-1.86;100.00;102600.50;4996521;28;20081;-91
2024/01/20 04:06:49;;;;;;;38.78;13.25;;;;;;;-1.86;100.00;102609.38;4996569;28;20104;-90
2024/01/20 04:09:20;;;;;;;36.63;12.50;;;;;;;-1.91;100.00;102595.47;4996887;28;20086;-91
2024/01/20 04:11:57;;;;;;;32.33;11.20;;;;;;;-1.90;100.00;102594.53;4965661;28;20038;-90
2024/01/20 04:14:31;;;;;;;42.55;12.88;;;;;;;-1.89;100.00;102600.69;4997027;28;20037;-90
2024/01/20 04:16:56;;;;;;;31.15;11.63;;;;;;;-1.87;100.00;102612.13;4997557;28;20038;-90
2024/01/20 04:19:36;;;;;;;36.17;11.43;;;;;;;-1.86;100.00;102609.38;4997013;28;20045;-90
2024/01/20 04:22:04;;;;;;;39.13;11.57;;;;;;;-1.88;100.00;102605.91;4996874;28;20049;-91
2024/01/20 04:24:41;;;;;;;41.22;13.15;;;;;;;-1.89;100.00;102608.66;4997120;28;20029;-91
2024/01/20 04:27:14;;;;;;;31.83;12.33;;;;;;;-1.85;100.00;102619.03;4997276;28;20034;-90
2024/01/20 04:29:44;;;;;;;36.33;13.00;;;;;;;-1.88;100.00;102611.25;4965335;28;20395;-91
2024/01/20 04:32:10;;;;;;;36.13;12.30;;;;;;;-1.93;100.00;102616.00;4996256;28;20034;-90
2024/01/20 04:34:41;;;;;;;36.43;13.03;;;;;;;-1.95;100.00;102624.06;4996173;28;20072;-90
2024/01/20 04:37:09;;;;;;;39.30;12.75;;;;;;;-1.95;100.00;102618.75;4996641;28;20311;-91
2024/01/20 04:39:34;;;;;;;33.10;11.70;;;;;;;-1.93;100.00;102618.66;4999223;28;20030;-91
2024/01/20 04:42:26;;;;;;;37.87;11.53;;;;;;;-1.89;100.00;102627.31;5000630;28;20030;-91
2024/01/20 04:44:55;;;;;;;33.03;12.20;;;;;;;-1.88;100.00;102634.34;5000290;28;20124;-90
2024/01/20 04:47:21;;;;;;;36.25;11.45;;;;;;;-1.85;100.00;102631.50;4999649;28;20037;-90
2024/01/20 04:49:53;;;;;;;33.72;11.82;;;;;;;-1.92;100.00;102625.66;5000080;28;20025;-91
2024/01/20 04:52:20;;;;;;;36.73;12.80;;;;;;;-1.92;100.00;102638.97;4999643;28;20037;-91
2024/01/20 04:54:48;;;;;;;31.70;11.63;;;;;;;-1.95;100.00;102642.69;5016158;28;20283;-91
2024/01/20 04:57:16;;;;;;;32.00;11.15;;;;;;;-1.95;100.00;102633.84;4999589;28;20029;-91
2024/01/20 04:59:43;;;;;;;33.15;12.27;;;;;;;-1.91;100.00;102640.69;4999436;28;20034;-91
2024/01/20 05:02:09;;;;;;;33.40;11.20;;;;;;;-1.95;100.00;102628.50;4984199;28;20030;-91
2024/01/20 05:04:37;;;;;;;32.97;11.90;;;;;;;-1.97;100.00;102635.75;4999859;28;20378;-91
2024/01/20 05:07:03;;;;;;;33.83;11.98;;;;;;;-1.97;100.00;102628.59;4983045;28;20088;-91
2024/01/20 05:09:30;;;;;;;37.27;11.07;;;;;;;-1.99;100.00;102627.84;5018462;28;20026;-91
2024/01/20 05:12:05;;;;;;;32.47;12.00;;;;;;;-1.94;100.00;102647.03;5001347;28;20052;-91
2024/01/20 05:14:36;;;;;;;34.63;11.85;;;;;;;-2.00;100.00;102646.56;5000481;28;20026;-91
2024/01/20 05:20:31;;;;;;;32.90;11.23;;;;;;;-1.96;100.00;102645.44;5018617;28;20045;-92
2024/01/20 05:23:18;;;;;;;37.88;12.35;;;;;;;-1.99;100.00;102651.78;4913591;28;20546;-90
2024/01/20 05:26:27;;;;;;;35.15;11.32;;;;;;;-1.97;100.00;102647.22;5006007;28;20042;-91
2024/01/20 05:29:21;;;;;;;33.58;10.70;;;;;;;-1.92;100.00;102659.41;4962869;29;20043;-90
2024/01/20 05:31:49;;;;;;;33.08;10.55;;;;;;;-2.01;100.00;102635.06;5005993;28;20493;-91
2024/01/20 05:34:24;;;;;;;29.67;10.70;;;;;;;-2.00;100.00;102654.53;4985423;28;20036;-92
2024/01/20 05:37:10;;;;;;;30.90;11.48;;;;;;;-2.01;100.00;102642.19;4985692;28;20406;-91
2024/01/20 05:39:45;;;;;;;32.85;11.07;;;;;;;-2.05;100.00;102644.16;4986367;28;20041;-91
2024/01/20 05:42:31;;;;;;;33.38;11.25;;;;;;;-2.06;100.00;102649.59;5002822;28;20034;-89
2024/01/20 05:44:59;;;;;;;34.83;12.68;;;;;;;-2.03;100.00;102655.56;5013738;28;20052;-90
2024/01/20 05:47:30;;;;;;;26.90;9.80;;;;;;;-2.01;100.00;102647.50;5017558;28;20065;-90
2024/01/20 05:49:58;;;;;;;27.25;11.38;;;;;;;-2.06;100.00;102653.09;5008262;28;20026;-91
2024/01/20 05:52:29;;;;;;;28.35;11.35;;;;;;;-2.08;100.00;102651.44;5012681;28;20030;-91
2024/01/20 05:55:07;;;;;;;28.10;10.50;;;;;;;-2.12;100.00;102654.28;5002596;28;20042;-91
2024/01/20 05:57:35;;;;;;;36.72;12.30;;;;;;;-2.15;100.00;102659.78;4985474;28;20077;-92
2024/01/20 06:00:27;;;;;;;31.17;11.07;;;;;;;-2.15;100.00;102656.28;5003904;28;20041;-91
2024/01/20 06:02:56;;;;;;;33.22;12.63;;;;;;;-2.13;100.00;102665.03;5027971;28;20032;-91
2024/01/20 06:05:29;;;;;;;32.55;11.07;;;;;;;-2.10;100.00;102666.66;5012515;28;20030;-91
2024/01/20 06:08:00;;;;;;;29.80;10.50;;;;;;;-2.09;100.00;102673.69;5017289;28;20046;-90
2024/01/20 06:10:25;;;;;;;29.80;10.65;;;;;;;-2.12;100.00;102667.59;5017187;28;20033;-91
2024/01/20 06:12:58;;;;;;;36.83;12.37;;;;;;;-2.09;100.00;102682.53;5016336;28;20026;-91
2024/01/20 06:15:27;;;;;;;36.58;11.85;;;;;;;-2.09;100.00;102663.91;5001416;28;20065;-92
2024/01/20 06:18:03;;;;;;;31.30;11.20;;;;;;;-2.06;100.00;102677.03;4985696;28;20037;-91
2024/01/20 06:20:34;;;;;;;30.20;11.52;;;;;;;-2.06;100.00;102676.19;4995178;28;20380;-91
2024/01/20 06:23:12;;;;;;;33.05;11.60;;;;;;;-2.05;100.00;102673.44;4978475;28;20055;-91
2024/01/20 06:25:38;;;;;;;29.17;10.98;;;;;;;-2.06;100.00;102671.72;4979648;28;20038;-91
2024/01/20 06:28:05;;;;;;;27.85;10.88;;;;;;;-2.10;100.00;102675.47;4979527;28;20026;-91
2024/01/20 06:30:56;;;;;;;29.90;10.73;;;;;;;-2.05;100.00;102691.16;4979625;28;20045;-91
2024/01/20 06:33:27;;;;;;;34.92;11.73;;;;;;;-2.10;100.00;102683.47;4980425;28;20141;-91
2024/01/20 06:36:02;;;;;;;31.85;10.93;;;;;;;-2.09;100.00;102681.69;4979213;28;20030;-91
2024/01/20 06:38:38;;;;;;;28.38;10.70;;;;;;;-2.05;100.00;102691.16;4979526;28;20042;-91
2024/01/20 06:41:09;;;;;;;30.87;10.87;;;;;;;-2.10;100.00;102687.94;4979339;28;20045;-92
2024/01/20 06:43:37;;;;;;;29.02;10.75;;;;;;;-2.10;100.00;102691.44;4978870;28;20339;-90
2024/01/20 06:46:05;;;;;;;28.98;10.70;;;;;;;-2.12;100.00;102706.63;4997660;28;20041;-90
2024/01/20 06:48:32;;;;;;;31.55;10.90;;;;;;;-2.11;100.00;102703.03;4997793;28;20083;-90
2024/01/20 06:50:59;;;;;;;26.67;10.55;;;;;;;-2.15;100.00;102690.84;5015650;28;20104;-90
2024/01/20 06:53:29;;;;;;;25.63;10.20;;;;;;;-2.14;100.00;102706.72;4997813;28;20064;-96
2024/01/20 06:55:57;;;;;;;29.55;10.05;;;;;;;-2.19;100.00;102706.13;4997978;28;20367;-93
2024/01/20 06:58:25;;;;;;;33.03;11.00;;;;;;;-2.19;100.00;102706.13;4981164;28;20037;-90
2024/01/20 07:00:58;;;;;;;29.50;10.95;;;;;;;-2.15;100.00;102718.31;5014380;28;20026;-92
2024/01/20 07:03:24;;;;;;;29.10;10.68;;;;;;;-2.22;100.00;102708.94;4996430;28;20031;-90
2024/01/20 07:05:52;;;;;;;30.10;10.80;;;;;;;-2.22;100.00;102714.25;4997267;28;20048;-92
2024/01/20 07:08:24;;;;;;;27.20;10.02;;;;;;;-2.22;100.00;102722.25;4997495;28;20465;-94
2024/01/20 07:10:52;;;;;;;31.92;10.95;;;;;;;-2.20;100.00;102724.81;4996780;28;20522;-90
2024/01/20 07:13:20;;;;;;;29.67;11.00;;;;;;;-2.21;100.00;102707.16;4996747;28;20041;-90
2024/01/20 07:15:48;;;;;;;30.02;10.60;;;;;;;-2.17;100.00;102720.19;4996309;28;20332;-90
2024/01/20 07:18:18;;;;;;;30.05;11.73;;;;;;;-2.22;100.00;102708.09;4997237;28;20041;-91
2024/01/20 07:20:44;;;;;;;33.58;11.23;;;;;;;-2.26;100.00;102712.72;4997388;28;20120;-90
2024/01/20 07:23:19;;;;;;;28.42;10.50;;;;;;;-2.23;100.00;102725.00;4980585;28;20161;-90
2024/01/20 07:25:58;;;;;;;39.93;11.57;;;;;;;-2.16;100.00;102718.38;4997373;28;20037;-91
2024/01/20 07:28:33;;;;;;;30.00;10.50;;;;;;;-2.22;100.00;102713.41;4998022;28;20268;-92
2024/01/20 07:31:10;;;;;;;34.60;11.68;;;;;;;-2.22;100.00;102716.06;4999116;28;20034;-92
2024/01/20 07:33:45;;;;;;;28.30;11.23;;;;;;;-2.22;100.00;102711.59;4997489;28;20030;-90
2024/01/20 07:36:18;;;;;;;24.00;10.25;;;;;;;-2.19;100.00;102714.09;5013601;28;20029;-90
2024/01/20 07:38:44;;;;;;;29.43;11.53;;;;;;;-2.18;100.00;102726.47;4981120;28;20049;-90
2024/01/20 07:41:18;;;;;;;23.58;10.38;;;;;;;-2.20;100.00;102720.38;4996874;28;20265;-91
2024/01/20 07:43:49;;;;;;;28.25;10.98;;;;;;;-2.26;100.00;102722.50;4996731;28;20069;-89
2024/01/20 07:46:19;;;;;;;35.70;12.63;;;;;;;-2.23;100.00;102723.22;4998954;28;20026;-89
2024/01/20 07:48:49;;;;;;;30.27;11.88;;;;;;;-2.26;100.00;102727.81;4996698;28;20300;-89
2024/01/20 07:51:15;;;;;;;30.08;12.20;;;;;;;-2.27;100.00;102726.97;4996603;28;20081;-89
2024/01/20 07:54:13;;;;;;;28.20;11.53;;;;;;;-2.25;100.00;102733.06;4996826;28;20433;-90
2024/01/20 07:56:39;;;;;;;29.30;11.82;;;;;;;-2.26;100.00;102734.00;5008376;28;20042;-89
2024/01/20 07:59:23;;;;;;;;;;;;;;;;;;;;;
2024/01/20 08:01:58;;;;;;;33.05;11.95;;;;;;;-2.22;100.00;102734.69;5014921;28;20026;-89
2024/01/20 08:04:42;;;;;;;29.70;10.50;;;;;;;-2.21;100.00;102741.75;5014034;28;20096;-91
2024/01/20 08:07:08;;;;;;;28.35;10.75;;;;;;;-2.21;100.00;102736.41;4995171;28;20761;-91
2024/01/20 08:09:45;;;;;;;36.65;12.98;;;;;;;-2.19;100.00;102735.38;4993161;28;20033;-90
2024/01/20 08:12:13;;;;;;;28.55;12.07;;;;;;;-2.23;100.00;102731.19;4994139;28;20035;-90
2024/01/20 08:14:41;;;;;;;35.17;13.77;;;;;;;-2.24;100.00;102731.25;4999808;28;20045;-90
2024/01/20 08:17:09;;;;;;;32.60;12.10;;;;;;;-2.24;100.00;102741.88;4984179;28;20119;-90
2024/01/20 08:19:37;;;;;;;28.73;11.77;;;;;;;-2.25;100.00;102742.84;5017871;28;20322;-90
2024/01/20 08:22:21;;;;;;;31.23;11.80;;;;;;;-2.20;100.00;102746.09;5000286;28;20382;-91
2024/01/20 08:25:04;;;;;;;30.70;11.25;;;;;;;-2.18;100.00;102755.72;5020478;28;20585;-90
2024/01/20 08:27:33;;;;;;;32.45;12.07;;;;;;;-2.19;100.00;102751.31;5000459;28;20061;-90
2024/01/20 08:30:11;;;;;;;;;;;;;;;;;;;;;
2024/01/20 08:32:40;;;;;;;31.88;12.93;;;;;;;-2.18;100.00;102752.22;5001754;28;20273;-89
2024/01/20 08:35:11;;;;;;;30.17;11.52;;;;;;;-2.17;100.00;102751.25;4984711;28;20046;-90
2024/01/20 08:38:07;;;;;;;28.05;12.10;;;;;;;-2.12;100.00;102749.19;4999479;28;20033;-89
2024/01/20 08:40:49;;;;;;;30.23;11.15;;;;;;;-2.08;100.00;102752.53;4999448;28;20042;-88
2024/01/20 08:43:21;;;;;;;33.30;12.23;;;;;;;-2.01;100.00;102765.44;4997305;28;20478;-88
2024/01/20 08:45:59;;;;;;;;;;;;;;;;;;;;;
2024/01/20 08:48:28;;;;;;;31.08;11.02;;;;;;;-1.92;100.00;102763.19;5001060;28;20033;-90
2024/01/20 08:50:56;;;;;;;30.30;11.05;;;;;;;-1.85;100.00;102767.22;4983775;28;20552;-89
2024/01/20 08:53:23;;;;;;;28.58;11.00;;;;;;;-1.84;100.00;102776.91;4999287;28;20505;-89
2024/01/20 08:55:51;;;;;;;29.00;11.20;;;;;;;-1.85;100.00;102772.53;5015400;28;20100;-88
2024/01/20 08:58:17;;;;;;;26.48;10.95;;;;;;;-1.90;100.00;102758.66;5015609;28;20802;-89
2024/01/20 09:00:48;;;;;;;30.45;11.10;;;;;;;-1.82;100.00;102773.19;4999078;28;20021;-90
2024/01/20 09:03:21;;;;;;;27.97;11.60;;;;;;;-1.77;100.00;102767.66;5016560;28;20383;-89
2024/01/20 09:05:55;;;;;;;34.78;11.18;;;;;;;-1.79;100.00;102762.41;4998915;28;20033;-90
2024/01/20 09:08:21;;;;;;;28.52;12.13;;;;;;;-1.77;100.00;102775.63;4976616;28;20038;-88
2024/01/20 09:10:47;;;;;;;26.45;10.60;;;;;;;-1.79;100.00;102780.16;4982704;28;20030;-90
2024/01/20 09:13:13;;;;;;;31.70;12.20;;;;;;;-1.77;100.00;102775.63;4999307;28;20029;-89
2024/01/20 09:15:43;;;;;;;28.77;11.30;;;;;;;-1.78;100.00;102781.88;4982433;28;20080;-90
2024/01/20 09:18:17;;;;;;;28.03;11.87;;;;;;;-1.82;100.00;102780.34;4997848;28;20371;-90
2024/01/20 09:20:42;;;;;;;24.05;10.13;;;;;;;-1.88;100.00;102776.22;4999712;28;20343;-89
2024/01/20 09:23:16;;;;;;;30.05;11.90;;;;;;;-1.88;100.00;102786.84;4998033;28;20022;-88
2024/01/20 09:25:42;;;;;;;28.98;11.27;;;;;;;-1.84;100.00;102788.41;4997224;28;20054;-88
2024/01/20 09:28:34;;;;;;;29.53;11.77;;;;;;;-1.81;100.00;102792.72;4997446;28;20041;-89
2024/01/20 09:31:05;;;;;;;30.73;11.68;;;;;;;-1.82;100.00;102780.34;4965759;28;20121;-89
2024/01/20 09:33:36;;;;;;;31.45;12.07;;;;;;;-1.85;100.00;102788.50;4964975;28;20042;-90
2024/01/20 09:36:04;;;;;;;32.37;11.53;;;;;;;-1.91;100.00;102794.16;4990815;28;20234;-90
2024/01/20 09:38:37;;;;;;;26.92;10.98;;;;;;;-1.92;100.00;102785.31;4979104;28;20278;-89
2024/01/20 09:41:09;;;;;;;27.88;11.70;;;;;;;-1.87;100.00;102783.25;5008932;28;20056;-91
2024/01/20 09:43:39;;;;;;;29.52;10.70;;;;;;;-1.77;100.00;102794.25;4983534;28;20058;-88
2024/01/20 09:46:07;;;;;;;32.58;11.82;;;;;;;-1.68;100.00;102795.50;4998165;28;20237;-90
2024/01/20 09:48:33;;;;;;;27.73;11.07;;;;;;;-1.59;100.00;102803.00;4998413;28;20044;-89
2024/01/20 09:50:58;;;;;;;35.28;12.15;;;;;;;-1.56;100.00;102812.63;5004623;28;20380;-89
2024/01/20 09:53:36;;;;;;;32.63;12.60;;;;;;;-1.54;100.00;102808.91;4998482;28;20026;-89
2024/01/20 09:56:02;;;;;;;29.00;11.32;;;;;;;-1.50;100.00;102821.09;4983779;28;20128;-89
2024/01/20 09:58:31;;;;;;;28.38;12.40;;;;;;;-1.46;100.00;102808.44;4998050;28;20030;-89
2024/01/20 10:01:05;;;;;;;34.05;12.55;;;;;;;-1.49;100.00;102803.31;4996304;28;20049;-88
2024/01/20 10:03:34;;;;;;;28.80;12.63;;;;;;;-1.47;100.00;102812.09;4997837;28;20025;-89
2024/01/20 10:06:05;;;;;;;28.38;11.50;;;;;;;-1.44;100.00;102817.22;4997343;28;20513;-89
2024/01/20 10:11:35;;;;;;;29.70;10.93;;;;;;;-1.35;100.00;102811.38;4984075;28;20042;-91
2024/01/20 10:14:26;;;;;;;27.90;11.80;;;;;;;-1.28;100.00;102815.38;5000152;28;20025;-91
2024/01/20 10:17:11;;;;;;;27.13;10.77;;;;;;;-1.30;100.00;102816.41;4997712;28;20682;-92
2024/01/20 10:20:16;;;;;;;;;;;;;;;;;;;;;
2024/01/20 10:23:02;;;;;;;;;;;;;;;;;;;;;
2024/01/20 10:26:17;;;;;;;24.23;10.27;;;;;;;-1.30;100.00;102822.63;5015764;28;20042;-91
2024/01/20 10:28:48;;;;;;;26.42;9.80;;;;;;;-1.25;100.00;102823.19;4998429;28;20033;-92
2024/01/20 10:31:33;;;;;;;26.77;10.10;;;;;;;-1.19;100.00;102808.66;4974439;28;20038;-92
2024/01/20 10:34:29;;;;;;;;;;;;;;;;;;;;;
2024/01/20 10:37:33;;;;;;;25.20;9.85;;;;;;;-1.04;100.00;102795.41;5012657;28;20030;-93
2024/01/20 10:40:10;;;;;;;23.38;9.02;;;;;;;-0.98;100.00;102797.69;4974354;28;20044;-91
2024/01/20 10:43:11;;;;;;;27.75;9.82;;;;;;;-1.00;100.00;102791.59;5033680;28;20037;-89
2024/01/20 10:45:52;;;;;;;22.57;8.90;;;;;;;-1.05;100.00;102791.84;5034120;28;20063;-91
2024/01/20 10:54:49;;;;;;;;;;;;;;;;;;;;;
2024/01/20 10:57:40;;;;;;;25.75;10.38;;;;;;;-1.00;100.00;102799.59;5024528;28;20046;-92
2024/01/20 11:01:05;;;;;;;26.83;11.20;;;;;;;-0.93;100.00;102798.25;5000073;28;20041;-92
2024/01/20 11:04:03;;;;;;;22.85;9.93;;;;;;;-0.84;100.00;102799.50;5034304;28;20124;-92
2024/01/20 11:07:02;;;;;;;22.38;9.93;;;;;;;-0.76;100.00;102803.44;4997662;28;20041;-92
2024/01/20 11:10:29;;;;;;;;;;;;;;;;;;;;;
2024/01/20 11:16:58;;;;;;;;;;;;;;;;;;;;;
2024/01/20 11:20:04;;;;;;;28.08;11.20;;;;;;;-0.01;100.00;102792.56;5022544;28;20037;-91
2024/01/20 11:22:59;;;;;;;25.63;10.93;;;;;;;-0.17;100.00;102786.50;4996274;28;20029;-92
2024/01/20 11:25:57;;;;;;;26.23;10.95;;;;;;;-0.44;100.00;102779.28;4899938;29;20504;-94
2024/01/20 11:28:54;;;;;;;23.90;11.10;;;;;;;-0.58;100.00;102787.25;4895883;28;20074;-94
2024/01/20 11:31:35;;;;;;;21.90;8.57;;;;;;;-0.73;100.00;102781.91;4936626;28;20042;-93
2024/01/20 11:34:23;;;;;;;24.60;10.18;;;;;;;-0.78;100.00;102780.50;4975070;28;20039;-94
2024/01/20 11:37:34;;;;;;;;;;;;;;;;;;;;;
2024/01/20 11:47:57;;;;;;;28.93;11.50;;;;;;;-0.15;100.00;102767.72;4931322;29;20095;-93
2024/01/20 11:50:35;;;;;;;;;;;;;;;;;;;;;
2024/01/20 11:53:09;;;;;;;27.92;11.35;;;;;;;0.12;100.00;102757.94;4987262;28;20034;-92
2024/01/20 11:55:52;;;;;;;;;;;;;;;;;;;;;
2024/01/20 11:58:33;;;;;;;26.20;11.23;;;;;;;0.66;100.00;102751.69;4997331;28;20026;-92
2024/01/20 12:01:05;;;;;;;25.20;9.93;;;;;;;1.13;100.00;102751.22;4984586;28;20084;-92
2024/01/20 12:03:44;;;;;;;25.50;11.23;;;;;;;1.61;100.00;102748.72;4993400;28;20034;-93
2024/01/20 12:06:17;;;;;;;27.92;11.05;;;;;;;1.96;100.00;102747.13;4978335;28;20030;-92
2024/01/20 12:08:55;;;;;;;24.65;10.80;;;;;;;2.05;100.00;102744.66;4967391;28;20061;-92
2024/01/20 12:11:34;;;;;;;25.55;10.80;;;;;;;2.21;100.00;102751.53;4971725;28;20035;-92
2024/01/20 12:14:39;;;;;;;23.67;10.80;;;;;;;2.72;100.00;102740.56;4970699;28;20073;-94
2024/01/20 12:17:22;;;;;;;23.48;10.55;;;;;;;3.23;100.00;102750.03;4970306;28;20034;-92
2024/01/20 12:19:51;;;;;;;21.48;10.70;;;;;;;3.21;100.00;102751.16;4978070;28;20394;-92
2024/01/20 12:23:07;;;;;;;;;;;;;;;;;;;;;
2024/01/20 12:26:04;;;;;;;;;;;;;;;;;;;;;
2024/01/20 12:28:52;;;;;;;17.67;8.07;;;;;;;3.90;100.00;102736.72;5020335;28;20363;-95
2024/01/20 12:38:05;;;;;;;13.60;6.53;;;;;;;4.12;100.00;102714.31;4954511;28;20046;-95
2024/01/20 12:44:13;;;;;;;12.63;6.43;;;;;;;4.87;90.38;102704.44;4954744;28;20085;-95
2024/01/20 12:53:54;;;;;;;;;;;;;;;;;;;;;
2024/01/20 13:07:35;;;;;;;12.23;6.18;;;;;;;5.41;84.09;102672.81;4884556;29;20052;-94
2024/01/20 13:13:47;;;;;;;;;;;;;;;;;;;;;
2024/01/20 13:30:20;;;;;;;14.07;7.85;;;;;;;5.94;73.92;102656.34;4981093;28;20053;-94